sensor_id;sensor_type;location;lat;lon;timestamp;temperature;humidity
12268;DHT22;6196;48.398;11.736;2022-12-04T00:00:31;1.60;99.90
12268;DHT22;6196;48.398;11.736;2022-12-04T00:02:58;1.70;99.90
12268;DHT22;6196;48.398;11.736;2022-12-04T00:05:24;1.60;99.90
12268;DHT22;6196;48.398;11.736;2022-12-04T00:07:51;1.70;99.90
12268;DHT22;6196;48.398;11.736;2022-12-04T00:10:18;1.70;99.90
12268;DHT22;6196;48.398;11.736;2022-12-04T00:12:45;1.70;99.90
12268;DHT22;6196;48.398;11.736;2022-12-04T00:15:12;1.70;99.90
12268;DHT22;6196;48.398;11.736;2022-12-04T00:17:51;1.70;99.90
12268;DHT22;6196;48.398;11.736;2022-12-04T00:20:18;1.70;99.90
12268;DHT22;6196;48.398;11.736;2022-12-04T00:22:45;1.70;99.90
12268;DHT22;6196;48.398;11.736;2022-12-04T00:25:12;1.60;99.90
12268;DHT22;6196;48.398;11.736;2022-12-04T00:27:39;1.70;99.90
12268;DHT22;6196;48.398;11.736;2022-12-04T00:30:06;1.70;99.90
12268;DHT22;6196;48.398;11.736;2022-12-04T00:32:33;1.70;99.90
12268;DHT22;6196;48.398;11.736;2022-12-04T00:35:00;1.70;99.90
12268;DHT22;6196;48.398;11.736;2022-12-04T00:37:27;1.70;99.90
12268;DHT22;6196;48.398;11.736;2022-12-04T00:39:54;1.80;99.90
12268;DHT22;6196;48.398;11.736;2022-12-04T00:42:21;1.70;99.90
12268;DHT22;6196;48.398;11.736;2022-12-04T00:44:48;1.70;99.90
12268;DHT22;6196;48.398;11.736;2022-12-04T00:47:15;1.70;99.90
12268;DHT22;6196;48.398;11.736;2022-12-04T00:49:42;1.70;99.90
12268;DHT22;6196;48.398;11.736;2022-12-04T00:52:09;1.60;99.90
12268;DHT22;6196;48.398;11.736;2022-12-04T00:54:36;1.60;99.90
12268;DHT22;6196;48.398;11.736;2022-12-04T00:57:02;1.70;99.90
12268;DHT22;6196;48.398;11.736;2022-12-04T00:59:29;1.70;99.90
12268;DHT22;6196;48.398;11.736;2022-12-04T01:01:56;1.70;99.90
12268;DHT22;6196;48.398;11.736;2022-12-04T01:04:23;1.70;99.90
12268;DHT22;6196;48.398;11.736;2022-12-04T01:06:50;1.70;99.90
12268;DHT22;6196;48.398;11.736;2022-12-04T01:09:17;1.80;99.90
12268;DHT22;6196;48.398;11.736;2022-12-04T01:11:44;1.80;99.90
12268;DHT22;6196;48.398;11.736;2022-12-04T01:14:11;1.80;99.90
12268;DHT22;6196;48.398;11.736;2022-12-04T01:16:38;1.80;99.90
12268;DHT22;6196;48.398;11.736;2022-12-04T01:19:08;1.80;99.90
12268;DHT22;6196;48.398;11.736;2022-12-04T01:21:37;1.80;99.90
12268;DHT22;6196;48.398;11.736;2022-12-04T01:24:04;1.70;99.90
12268;DHT22;6196;48.398;11.736;2022-12-04T01:26:32;1.70;99.90
12268;DHT22;6196;48.398;11.736;2022-12-04T01:28:59;1.70;99.90
12268;DHT22;6196;48.398;11.736;2022-12-04T01:31:26;1.80;99.90
12268;DHT22;6196;48.398;11.736;2022-12-04T01:33:53;1.80;99.90
12268;DHT22;6196;48.398;11.736;2022-12-04T01:36:22;1.90;99.90
12268;DHT22;6196;48.398;11.736;2022-12-04T01:38:51;1.90;99.90
12268;DHT22;6196;48.398;11.736;2022-12-04T01:41:24;1.90;99.90
12268;DHT22;6196;48.398;11.736;2022-12-04T01:46:43;1.80;99.90
12268;DHT22;6196;48.398;11.736;2022-12-04T01:49:33;1.90;99.90
12268;DHT22;6196;48.398;11.736;2022-12-04T01:52:17;1.90;99.90
12268;DHT22;6196;48.398;11.736;2022-12-04T01:54:56;1.90;99.90
12268;DHT22;6196;48.398;11.736;2022-12-04T01:57:27;1.90;99.90
12268;DHT22;6196;48.398;11.736;2022-12-04T02:00:06;1.80;99.90
12268;DHT22;6196;48.398;11.736;2022-12-04T02:02:40;1.90;99.90
12268;DHT22;6196;48.398;11.736;2022-12-04T02:05:20;2.00;99.90
12268;DHT22;6196;48.398;11.736;2022-12-04T02:07:49;2.00;99.90
12268;DHT22;6196;48.398;11.736;2022-12-04T02:10:18;2.00;99.90
12268;DHT22;6196;48.398;11.736;2022-12-04T02:13:04;2.10;99.90
12268;DHT22;6196;48.398;11.736;2022-12-04T02:16:16;2.10;99.90
12268;DHT22;6196;48.398;11.736;2022-12-04T02:27:10;2.00;99.90
12268;DHT22;6196;48.398;11.736;2022-12-04T02:29:53;2.10;99.90
12268;DHT22;6196;48.398;11.736;2022-12-04T02:32:45;2.10;99.90
12268;DHT22;6196;48.398;11.736;2022-12-04T02:35:35;2.10;99.90
12268;DHT22;6196;48.398;11.736;2022-12-04T02:38:12;2.10;99.90
12268;DHT22;6196;48.398;11.736;2022-12-04T02:43:31;2.10;99.90
12268;DHT22;6196;48.398;11.736;2022-12-04T02:46:08;2.20;99.90
12268;DHT22;6196;48.398;11.736;2022-12-04T02:48:40;2.10;99.90
12268;DHT22;6196;48.398;11.736;2022-12-04T02:51:11;2.10;99.90
12268;DHT22;6196;48.398;11.736;2022-12-04T02:53:45;2.20;99.90
12268;DHT22;6196;48.398;11.736;2022-12-04T02:56:18;2.20;99.90
12268;DHT22;6196;48.398;11.736;2022-12-04T02:58:56;2.20;99.90
12268;DHT22;6196;48.398;11.736;2022-12-04T03:01:37;2.20;99.90
12268;DHT22;6196;48.398;11.736;2022-12-04T03:04:16;2.10;99.90
12268;DHT22;6196;48.398;11.736;2022-12-04T03:06:59;2.20;99.90
12268;DHT22;6196;48.398;11.736;2022-12-04T03:09:41;2.20;99.90
12268;DHT22;6196;48.398;11.736;2022-12-04T03:12:35;2.20;99.90
12268;DHT22;6196;48.398;11.736;2022-12-04T03:15:13;2.20;99.90
12268;DHT22;6196;48.398;11.736;2022-12-04T03:18:03;2.20;99.90
12268;DHT22;6196;48.398;11.736;2022-12-04T03:20:36;2.30;99.90
12268;DHT22;6196;48.398;11.736;2022-12-04T03:23:34;2.20;99.90
12268;DHT22;6196;48.398;11.736;2022-12-04T03:26:25;2.30;99.90
12268;DHT22;6196;48.398;11.736;2022-12-04T03:29:10;2.30;99.90
12268;DHT22;6196;48.398;11.736;2022-12-04T03:32:11;2.30;99.90
12268;DHT22;6196;48.398;11.736;2022-12-04T03:37:40;2.40;99.90
12268;DHT22;6196;48.398;11.736;2022-12-04T03:40:28;2.40;99.90
12268;DHT22;6196;48.398;11.736;2022-12-04T03:43:34;2.30;99.90
12268;DHT22;6196;48.398;11.736;2022-12-04T03:49:02;2.30;99.90
12268;DHT22;6196;48.398;11.736;2022-12-04T03:51:38;2.40;99.90
12268;DHT22;6196;48.398;11.736;2022-12-04T03:56:50;2.40;99.90
12268;DHT22;6196;48.398;11.736;2022-12-04T03:59:26;2.40;99.90
12268;DHT22;6196;48.398;11.736;2022-12-04T04:01:57;2.40;99.90
12268;DHT22;6196;48.398;11.736;2022-12-04T04:04:36;2.40;99.90
12268;DHT22;6196;48.398;11.736;2022-12-04T04:07:15;2.30;99.90
12268;DHT22;6196;48.398;11.736;2022-12-04T04:10:05;2.40;99.90
12268;DHT22;6196;48.398;11.736;2022-12-04T04:12:39;2.50;99.90
12268;DHT22;6196;48.398;11.736;2022-12-04T04:15:13;2.50;99.90
12268;DHT22;6196;48.398;11.736;2022-12-04T04:18:00;2.50;99.90
12268;DHT22;6196;48.398;11.736;2022-12-04T04:20:53;2.50;99.90
12268;DHT22;6196;48.398;11.736;2022-12-04T04:23:47;2.50;99.90
12268;DHT22;6196;48.398;11.736;2022-12-04T04:26:37;2.50;99.90
12268;DHT22;6196;48.398;11.736;2022-12-04T04:29:10;2.50;99.90
12268;DHT22;6196;48.398;11.736;2022-12-04T04:45:44;2.60;99.90
12268;DHT22;6196;48.398;11.736;2022-12-04T04:48:17;2.60;99.90
12268;DHT22;6196;48.398;11.736;2022-12-04T04:50:49;2.60;99.90
12268;DHT22;6196;48.398;11.736;2022-12-04T04:53:22;2.70;99.90
12268;DHT22;6196;48.398;11.736;2022-12-04T04:55:52;2.60;99.90
12268;DHT22;6196;48.398;11.736;2022-12-04T04:58:20;2.60;99.90
12268;DHT22;6196;48.398;11.736;2022-12-04T05:01:01;2.60;99.90
12268;DHT22;6196;48.398;11.736;2022-12-04T05:03:30;2.60;99.90
12268;DHT22;6196;48.398;11.736;2022-12-04T05:05:57;2.50;99.90
12268;DHT22;6196;48.398;11.736;2022-12-04T05:08:24;2.50;99.90
12268;DHT22;6196;48.398;11.736;2022-12-04T05:10:52;2.60;99.90
12268;DHT22;6196;48.398;11.736;2022-12-04T05:13:20;2.50;99.90
12268;DHT22;6196;48.398;11.736;2022-12-04T05:16:00;2.60;99.90
12268;DHT22;6196;48.398;11.736;2022-12-04T05:18:29;2.50;99.90
12268;DHT22;6196;48.398;11.736;2022-12-04T05:20:56;2.50;99.90
12268;DHT22;6196;48.398;11.736;2022-12-04T05:23:24;2.60;99.90
12268;DHT22;6196;48.398;11.736;2022-12-04T05:25:58;2.50;99.90
12268;DHT22;6196;48.398;11.736;2022-12-04T05:28:27;2.50;99.90
12268;DHT22;6196;48.398;11.736;2022-12-04T05:30:58;2.50;99.90
12268;DHT22;6196;48.398;11.736;2022-12-04T05:33:27;2.50;99.90
12268;DHT22;6196;48.398;11.736;2022-12-04T05:36:06;2.60;99.90
12268;DHT22;6196;48.398;11.736;2022-12-04T05:38:34;2.50;99.90
12268;DHT22;6196;48.398;11.736;2022-12-04T05:41:03;2.50;99.90
12268;DHT22;6196;48.398;11.736;2022-12-04T05:43:31;2.60;99.90
12268;DHT22;6196;48.398;11.736;2022-12-04T05:46:06;2.60;99.90
12268;DHT22;6196;48.398;11.736;2022-12-04T05:48:34;2.60;99.90
12268;DHT22;6196;48.398;11.736;2022-12-04T05:51:06;2.60;99.90
12268;DHT22;6196;48.398;11.736;2022-12-04T05:53:33;2.60;99.90
12268;DHT22;6196;48.398;11.736;2022-12-04T05:56:02;2.60;99.90
12268;DHT22;6196;48.398;11.736;2022-12-04T05:58:29;2.60;99.90
12268;DHT22;6196;48.398;11.736;2022-12-04T06:00:57;2.60;99.90
12268;DHT22;6196;48.398;11.736;2022-12-04T06:03:23;2.60;99.90
12268;DHT22;6196;48.398;11.736;2022-12-04T06:05:50;2.60;99.90
12268;DHT22;6196;48.398;11.736;2022-12-04T06:08:17;2.60;99.90
12268;DHT22;6196;48.398;11.736;2022-12-04T06:10:44;2.60;99.90
12268;DHT22;6196;48.398;11.736;2022-12-04T06:13:11;2.60;99.90
12268;DHT22;6196;48.398;11.736;2022-12-04T06:15:39;2.70;99.90
12268;DHT22;6196;48.398;11.736;2022-12-04T06:18:06;2.60;99.90
12268;DHT22;6196;48.398;11.736;2022-12-04T06:20:33;2.60;99.90
12268;DHT22;6196;48.398;11.736;2022-12-04T06:23:00;2.60;99.90
12268;DHT22;6196;48.398;11.736;2022-12-04T06:25:27;2.60;99.90
12268;DHT22;6196;48.398;11.736;2022-12-04T06:27:54;2.70;99.90
12268;DHT22;6196;48.398;11.736;2022-12-04T06:30:21;2.80;99.90
12268;DHT22;6196;48.398;11.736;2022-12-04T06:32:48;2.70;99.90
12268;DHT22;6196;48.398;11.736;2022-12-04T06:35:15;2.70;99.90
12268;DHT22;6196;48.398;11.736;2022-12-04T06:37:42;2.70;99.90
12268;DHT22;6196;48.398;11.736;2022-12-04T06:40:09;2.70;99.90
12268;DHT22;6196;48.398;11.736;2022-12-04T06:42:36;2.70;99.90
12268;DHT22;6196;48.398;11.736;2022-12-04T06:45:03;2.80;99.90
12268;DHT22;6196;48.398;11.736;2022-12-04T06:47:30;2.90;99.90
12268;DHT22;6196;48.398;11.736;2022-12-04T06:49:57;2.80;99.90
12268;DHT22;6196;48.398;11.736;2022-12-04T06:52:24;2.80;99.90
12268;DHT22;6196;48.398;11.736;2022-12-04T06:54:51;2.70;99.90
12268;DHT22;6196;48.398;11.736;2022-12-04T06:57:18;2.80;99.90
12268;DHT22;6196;48.398;11.736;2022-12-04T06:59:45;2.80;99.90
12268;DHT22;6196;48.398;11.736;2022-12-04T07:02:12;2.80;99.90
12268;DHT22;6196;48.398;11.736;2022-12-04T07:04:39;2.80;99.90
12268;DHT22;6196;48.398;11.736;2022-12-04T07:07:08;2.80;99.90
12268;DHT22;6196;48.398;11.736;2022-12-04T07:09:35;2.90;99.90
12268;DHT22;6196;48.398;11.736;2022-12-04T07:12:02;2.90;99.90
12268;DHT22;6196;48.398;11.736;2022-12-04T07:14:30;2.90;99.90
12268;DHT22;6196;48.398;11.736;2022-12-04T07:16:57;2.90;99.90
12268;DHT22;6196;48.398;11.736;2022-12-04T07:19:24;3.00;99.90
12268;DHT22;6196;48.398;11.736;2022-12-04T07:21:51;2.90;99.90
12268;DHT22;6196;48.398;11.736;2022-12-04T07:24:18;2.90;99.90
12268;DHT22;6196;48.398;11.736;2022-12-04T07:26:45;3.00;99.90
12268;DHT22;6196;48.398;11.736;2022-12-04T07:29:12;3.00;99.90
12268;DHT22;6196;48.398;11.736;2022-12-04T07:31:39;2.90;99.90
12268;DHT22;6196;48.398;11.736;2022-12-04T07:34:06;2.90;99.90
12268;DHT22;6196;48.398;11.736;2022-12-04T07:36:33;2.90;99.90
12268;DHT22;6196;48.398;11.736;2022-12-04T07:39:00;2.90;99.90
12268;DHT22;6196;48.398;11.736;2022-12-04T07:41:27;2.90;99.90
12268;DHT22;6196;48.398;11.736;2022-12-04T07:43:53;2.90;99.90
12268;DHT22;6196;48.398;11.736;2022-12-04T07:46:23;2.90;99.90
12268;DHT22;6196;48.398;11.736;2022-12-04T07:48:53;3.00;99.90
12268;DHT22;6196;48.398;11.736;2022-12-04T07:51:23;2.90;99.90
12268;DHT22;6196;48.398;11.736;2022-12-04T07:53:52;2.90;99.90
12268;DHT22;6196;48.398;11.736;2022-12-04T07:56:20;2.90;99.90
12268;DHT22;6196;48.398;11.736;2022-12-04T07:58:47;2.90;99.90
12268;DHT22;6196;48.398;11.736;2022-12-04T08:01:20;2.90;99.90
12268;DHT22;6196;48.398;11.736;2022-12-04T08:03:50;3.00;99.90
12268;DHT22;6196;48.398;11.736;2022-12-04T08:06:20;3.10;99.90
12268;DHT22;6196;48.398;11.736;2022-12-04T08:08:48;3.10;99.90
12268;DHT22;6196;48.398;11.736;2022-12-04T08:11:18;3.00;99.90
12268;DHT22;6196;48.398;11.736;2022-12-04T08:13:52;3.10;99.90
12268;DHT22;6196;48.398;11.736;2022-12-04T08:16:23;3.10;99.90
12268;DHT22;6196;48.398;11.736;2022-12-04T08:18:52;3.10;99.90
12268;DHT22;6196;48.398;11.736;2022-12-04T08:21:22;3.10;99.90
12268;DHT22;6196;48.398;11.736;2022-12-04T08:23:51;3.10;99.90
12268;DHT22;6196;48.398;11.736;2022-12-04T08:26:22;3.20;99.90
12268;DHT22;6196;48.398;11.736;2022-12-04T08:28:52;3.20;99.90
12268;DHT22;6196;48.398;11.736;2022-12-04T08:31:25;3.30;99.90
12268;DHT22;6196;48.398;11.736;2022-12-04T08:33:55;3.30;99.90
12268;DHT22;6196;48.398;11.736;2022-12-04T08:36:23;3.30;99.90
12268;DHT22;6196;48.398;11.736;2022-12-04T08:38:50;3.30;99.90
12268;DHT22;6196;48.398;11.736;2022-12-04T08:41:18;3.30;99.90
12268;DHT22;6196;48.398;11.736;2022-12-04T08:43:50;3.30;99.90
12268;DHT22;6196;48.398;11.736;2022-12-04T08:46:20;3.30;99.90
12268;DHT22;6196;48.398;11.736;2022-12-04T08:48:48;3.30;99.90
12268;DHT22;6196;48.398;11.736;2022-12-04T08:51:23;3.40;99.90
12268;DHT22;6196;48.398;11.736;2022-12-04T08:53:56;3.40;99.90
12268;DHT22;6196;48.398;11.736;2022-12-04T08:56:26;3.50;99.90
12268;DHT22;6196;48.398;11.736;2022-12-04T08:58:54;3.60;99.90
12268;DHT22;6196;48.398;11.736;2022-12-04T09:01:22;3.60;99.90
12268;DHT22;6196;48.398;11.736;2022-12-04T09:03:49;3.50;99.90
12268;DHT22;6196;48.398;11.736;2022-12-04T09:06:16;3.60;99.90
12268;DHT22;6196;48.398;11.736;2022-12-04T09:08:43;3.50;99.90
12268;DHT22;6196;48.398;11.736;2022-12-04T09:11:19;3.50;99.90
12268;DHT22;6196;48.398;11.736;2022-12-04T09:13:47;3.50;99.90
12268;DHT22;6196;48.398;11.736;2022-12-04T09:16:20;3.50;99.90
12268;DHT22;6196;48.398;11.736;2022-12-04T09:18:48;3.60;99.90
12268;DHT22;6196;48.398;11.736;2022-12-04T09:21:17;3.50;99.90
12268;DHT22;6196;48.398;11.736;2022-12-04T09:23:45;3.40;99.90
12268;DHT22;6196;48.398;11.736;2022-12-04T09:26:20;3.50;99.90
12268;DHT22;6196;48.398;11.736;2022-12-04T09:28:48;3.50;99.90
12268;DHT22;6196;48.398;11.736;2022-12-04T09:31:16;3.60;99.90
12268;DHT22;6196;48.398;11.736;2022-12-04T09:33:44;3.70;99.90
12268;DHT22;6196;48.398;11.736;2022-12-04T09:36:12;3.70;99.90
12268;DHT22;6196;48.398;11.736;2022-12-04T09:38:47;3.90;99.90
12268;DHT22;6196;48.398;11.736;2022-12-04T09:44:35;3.80;99.90
12268;DHT22;6196;48.398;11.736;2022-12-04T09:47:30;3.90;99.90
12268;DHT22;6196;48.398;11.736;2022-12-04T09:50:26;3.90;99.90
12268;DHT22;6196;48.398;11.736;2022-12-04T09:53:05;4.00;99.90
12268;DHT22;6196;48.398;11.736;2022-12-04T09:55:46;4.00;99.90
12268;DHT22;6196;48.398;11.736;2022-12-04T09:58:29;4.00;99.90
12268;DHT22;6196;48.398;11.736;2022-12-04T10:01:05;4.10;99.90
12268;DHT22;6196;48.398;11.736;2022-12-04T10:03:53;4.10;99.90
12268;DHT22;6196;48.398;11.736;2022-12-04T10:06:46;4.20;99.90
12268;DHT22;6196;48.398;11.736;2022-12-04T10:09:23;4.10;99.90
12268;DHT22;6196;48.398;11.736;2022-12-04T10:14:54;4.20;99.90
12268;DHT22;6196;48.398;11.736;2022-12-04T10:26:44;3.80;99.90
12268;DHT22;6196;48.398;11.736;2022-12-04T10:29:19;3.90;99.90
12268;DHT22;6196;48.398;11.736;2022-12-04T10:31:50;3.90;99.90
12268;DHT22;6196;48.398;11.736;2022-12-04T10:34:27;3.90;99.90
12268;DHT22;6196;48.398;11.736;2022-12-04T10:37:00;4.00;99.90
12268;DHT22;6196;48.398;11.736;2022-12-04T10:39:39;3.90;99.90
12268;DHT22;6196;48.398;11.736;2022-12-04T10:44:47;4.10;99.90
12268;DHT22;6196;48.398;11.736;2022-12-04T10:47:13;4.20;99.90
12268;DHT22;6196;48.398;11.736;2022-12-04T10:49:41;4.20;99.90
12268;DHT22;6196;48.398;11.736;2022-12-04T10:52:10;4.20;99.90
12268;DHT22;6196;48.398;11.736;2022-12-04T10:54:45;4.30;99.90
12268;DHT22;6196;48.398;11.736;2022-12-04T10:57:14;4.40;99.90
12268;DHT22;6196;48.398;11.736;2022-12-04T10:59:53;4.30;99.90
12268;DHT22;6196;48.398;11.736;2022-12-04T11:02:24;4.40;99.90
12268;DHT22;6196;48.398;11.736;2022-12-04T11:04:59;4.40;99.90
12268;DHT22;6196;48.398;11.736;2022-12-04T11:07:29;4.40;99.90
12268;DHT22;6196;48.398;11.736;2022-12-04T11:10:20;4.40;99.90
12268;DHT22;6196;48.398;11.736;2022-12-04T11:15:50;4.50;99.90
12268;DHT22;6196;48.398;11.736;2022-12-04T11:18:20;4.50;99.90
12268;DHT22;6196;48.398;11.736;2022-12-04T11:20:52;4.50;99.90
12268;DHT22;6196;48.398;11.736;2022-12-04T11:23:22;4.30;99.90
12268;DHT22;6196;48.398;11.736;2022-12-04T11:25:52;4.30;99.90
12268;DHT22;6196;48.398;11.736;2022-12-04T11:28:22;4.30;99.90
12268;DHT22;6196;48.398;11.736;2022-12-04T11:31:08;4.20;99.90
12268;DHT22;6196;48.398;11.736;2022-12-04T11:36:27;4.20;99.90
12268;DHT22;6196;48.398;11.736;2022-12-04T11:41:39;4.10;99.90
12268;DHT22;6196;48.398;11.736;2022-12-04T11:44:06;4.20;99.90
12268;DHT22;6196;48.398;11.736;2022-12-04T11:46:56;4.30;99.90
12268;DHT22;6196;48.398;11.736;2022-12-04T11:49:25;4.30;99.90
12268;DHT22;6196;48.398;11.736;2022-12-04T11:52:24;4.40;99.90
12268;DHT22;6196;48.398;11.736;2022-12-04T11:55:23;4.40;99.90
12268;DHT22;6196;48.398;11.736;2022-12-04T12:00:49;4.40;99.90
12268;DHT22;6196;48.398;11.736;2022-12-04T12:03:36;4.30;99.90
12268;DHT22;6196;48.398;11.736;2022-12-04T12:06:23;4.20;99.90
12268;DHT22;6196;48.398;11.736;2022-12-04T12:12:08;4.20;99.90
12268;DHT22;6196;48.398;11.736;2022-12-04T12:14:52;4.20;99.90
12268;DHT22;6196;48.398;11.736;2022-12-04T12:17:42;4.20;99.90
12268;DHT22;6196;48.398;11.736;2022-12-04T12:23:33;4.10;99.90
12268;DHT22;6196;48.398;11.736;2022-12-04T12:26:16;4.10;99.90
12268;DHT22;6196;48.398;11.736;2022-12-04T12:29:32;4.10;99.90
12268;DHT22;6196;48.398;11.736;2022-12-04T12:35:32;4.10;99.90
12268;DHT22;6196;48.398;11.736;2022-12-04T12:38:05;4.10;99.90
12268;DHT22;6196;48.398;11.736;2022-12-04T12:40:40;4.00;99.90
12268;DHT22;6196;48.398;11.736;2022-12-04T12:43:12;4.10;99.90
12268;DHT22;6196;48.398;11.736;2022-12-04T12:45:47;4.20;99.90
12268;DHT22;6196;48.398;11.736;2022-12-04T12:48:52;4.10;99.90
12268;DHT22;6196;48.398;11.736;2022-12-04T12:56:56;4.20;99.90
12268;DHT22;6196;48.398;11.736;2022-12-04T12:59:29;4.20;99.90
12268;DHT22;6196;48.398;11.736;2022-12-04T13:02:06;4.10;99.90
12268;DHT22;6196;48.398;11.736;2022-12-04T13:04:42;4.20;99.90
12268;DHT22;6196;48.398;11.736;2022-12-04T13:10:39;4.10;99.90
12268;DHT22;6196;48.398;11.736;2022-12-04T13:13:27;3.90;99.90
12268;DHT22;6196;48.398;11.736;2022-12-04T13:16:02;3.80;99.90
12268;DHT22;6196;48.398;11.736;2022-12-04T13:18:50;3.80;99.90
12268;DHT22;6196;48.398;11.736;2022-12-04T13:21:36;3.80;99.90
12268;DHT22;6196;48.398;11.736;2022-12-04T13:24:27;3.80;99.90
12268;DHT22;6196;48.398;11.736;2022-12-04T13:27:28;3.80;99.90
12268;DHT22;6196;48.398;11.736;2022-12-04T13:30:09;3.80;99.90
12268;DHT22;6196;48.398;11.736;2022-12-04T13:41:36;3.60;99.90
12268;DHT22;6196;48.398;11.736;2022-12-04T13:44:21;3.70;99.90
12268;DHT22;6196;48.398;11.736;2022-12-04T13:47:00;3.70;99.90
12268;DHT22;6196;48.398;11.736;2022-12-04T13:49:29;3.80;99.90
12268;DHT22;6196;48.398;11.736;2022-12-04T13:51:59;3.90;99.90
12268;DHT22;6196;48.398;11.736;2022-12-04T13:54:34;3.90;99.90
12268;DHT22;6196;48.398;11.736;2022-12-04T13:59:41;3.90;99.90
12268;DHT22;6196;48.398;11.736;2022-12-04T14:02:52;3.80;99.90
12268;DHT22;6196;48.398;11.736;2022-12-04T14:05:29;3.80;99.90
12268;DHT22;6196;48.398;11.736;2022-12-04T14:08:19;3.70;99.90
12268;DHT22;6196;48.398;11.736;2022-12-04T14:11:03;3.70;99.90
12268;DHT22;6196;48.398;11.736;2022-12-04T14:16:29;3.70;99.90
12268;DHT22;6196;48.398;11.736;2022-12-04T14:19:02;3.70;99.90
12268;DHT22;6196;48.398;11.736;2022-12-04T14:21:43;3.70;99.90
12268;DHT22;6196;48.398;11.736;2022-12-04T14:30:26;3.70;99.90
12268;DHT22;6196;48.398;11.736;2022-12-04T14:33:17;3.70;99.90
12268;DHT22;6196;48.398;11.736;2022-12-04T14:36:02;3.80;99.90
12268;DHT22;6196;48.398;11.736;2022-12-04T14:38:37;3.70;99.90
12268;DHT22;6196;48.398;11.736;2022-12-04T14:41:05;3.70;99.90
12268;DHT22;6196;48.398;11.736;2022-12-04T14:43:39;3.70;99.90
12268;DHT22;6196;48.398;11.736;2022-12-04T14:46:30;3.70;99.90
12268;DHT22;6196;48.398;11.736;2022-12-04T14:55:04;3.70;99.90
12268;DHT22;6196;48.398;11.736;2022-12-04T15:00:52;3.90;99.90
12268;DHT22;6196;48.398;11.736;2022-12-04T15:03:21;3.90;99.90
12268;DHT22;6196;48.398;11.736;2022-12-04T15:05:49;3.90;99.90
12268;DHT22;6196;48.398;11.736;2022-12-04T15:08:16;3.80;99.90
12268;DHT22;6196;48.398;11.736;2022-12-04T15:10:49;3.80;99.90
12268;DHT22;6196;48.398;11.736;2022-12-04T15:13:36;3.90;99.90
12268;DHT22;6196;48.398;11.736;2022-12-04T15:16:16;3.90;99.90
12268;DHT22;6196;48.398;11.736;2022-12-04T15:18:59;3.90;99.90
12268;DHT22;6196;48.398;11.736;2022-12-04T15:21:44;4.00;99.90
12268;DHT22;6196;48.398;11.736;2022-12-04T15:24:18;4.00;99.90
12268;DHT22;6196;48.398;11.736;2022-12-04T15:26:46;4.00;99.90
12268;DHT22;6196;48.398;11.736;2022-12-04T15:29:21;4.10;99.90
12268;DHT22;6196;48.398;11.736;2022-12-04T15:31:52;4.10;99.90
12268;DHT22;6196;48.398;11.736;2022-12-04T15:34:42;4.00;99.90
12268;DHT22;6196;48.398;11.736;2022-12-04T15:37:25;3.90;99.90
12268;DHT22;6196;48.398;11.736;2022-12-04T15:39:55;3.90;99.90
12268;DHT22;6196;48.398;11.736;2022-12-04T15:47:29;3.80;99.90
12268;DHT22;6196;48.398;11.736;2022-12-04T15:50:08;3.80;99.90
12268;DHT22;6196;48.398;11.736;2022-12-04T15:55:41;3.90;99.90
12268;DHT22;6196;48.398;11.736;2022-12-04T15:58:37;3.80;99.90
12268;DHT22;6196;48.398;11.736;2022-12-04T16:01:06;3.80;99.90
12268;DHT22;6196;48.398;11.736;2022-12-04T16:06:26;3.70;99.90
12268;DHT22;6196;48.398;11.736;2022-12-04T16:11:33;3.80;99.90
12268;DHT22;6196;48.398;11.736;2022-12-04T16:16:35;3.90;99.90
12268;DHT22;6196;48.398;11.736;2022-12-04T16:19:15;3.80;99.90
12268;DHT22;6196;48.398;11.736;2022-12-04T16:21:53;3.80;99.90
12268;DHT22;6196;48.398;11.736;2022-12-04T16:24:23;3.70;99.90
12268;DHT22;6196;48.398;11.736;2022-12-04T16:26:52;3.70;99.90
12268;DHT22;6196;48.398;11.736;2022-12-04T16:29:21;3.70;99.90
12268;DHT22;6196;48.398;11.736;2022-12-04T16:31:49;3.70;99.90
12268;DHT22;6196;48.398;11.736;2022-12-04T16:34:16;3.80;99.90
12268;DHT22;6196;48.398;11.736;2022-12-04T16:36:43;3.70;99.90
12268;DHT22;6196;48.398;11.736;2022-12-04T16:39:10;3.80;99.90
12268;DHT22;6196;48.398;11.736;2022-12-04T16:41:37;3.90;99.90
12268;DHT22;6196;48.398;11.736;2022-12-04T16:44:11;3.70;99.90
12268;DHT22;6196;48.398;11.736;2022-12-04T16:46:40;3.80;99.90
12268;DHT22;6196;48.398;11.736;2022-12-04T16:49:11;3.70;99.90
12268;DHT22;6196;48.398;11.736;2022-12-04T16:51:42;3.60;99.90
12268;DHT22;6196;48.398;11.736;2022-12-04T16:54:12;3.60;99.90
12268;DHT22;6196;48.398;11.736;2022-12-04T16:56:39;3.60;99.90
12268;DHT22;6196;48.398;11.736;2022-12-04T16:59:07;3.60;99.90
12268;DHT22;6196;48.398;11.736;2022-12-04T17:01:44;3.60;99.90
12268;DHT22;6196;48.398;11.736;2022-12-04T17:04:13;3.60;99.90
12268;DHT22;6196;48.398;11.736;2022-12-04T17:06:41;3.60;99.90
12268;DHT22;6196;48.398;11.736;2022-12-04T17:09:08;3.60;99.90
12268;DHT22;6196;48.398;11.736;2022-12-04T17:11:35;3.60;99.90
12268;DHT22;6196;48.398;11.736;2022-12-04T17:14:02;3.50;99.90
12268;DHT22;6196;48.398;11.736;2022-12-04T17:16:37;3.40;99.90
12268;DHT22;6196;48.398;11.736;2022-12-04T17:19:10;3.40;99.90
12268;DHT22;6196;48.398;11.736;2022-12-04T17:21:37;3.40;99.90
12268;DHT22;6196;48.398;11.736;2022-12-04T17:24:06;3.40;99.90
12268;DHT22;6196;48.398;11.736;2022-12-04T17:26:33;3.30;99.90
12268;DHT22;6196;48.398;11.736;2022-12-04T17:29:00;3.20;99.90
12268;DHT22;6196;48.398;11.736;2022-12-04T17:31:27;3.20;99.90
12268;DHT22;6196;48.398;11.736;2022-12-04T17:33:55;3.30;99.90
12268;DHT22;6196;48.398;11.736;2022-12-04T17:36:24;3.20;99.90
12268;DHT22;6196;48.398;11.736;2022-12-04T17:38:55;3.20;99.90
12268;DHT22;6196;48.398;11.736;2022-12-04T17:41:24;3.20;99.90
12268;DHT22;6196;48.398;11.736;2022-12-04T17:43:50;3.20;99.90
12268;DHT22;6196;48.398;11.736;2022-12-04T17:46:19;3.20;99.90
12268;DHT22;6196;48.398;11.736;2022-12-04T17:48:48;3.20;99.90
12268;DHT22;6196;48.398;11.736;2022-12-04T17:51:20;3.10;99.90
12268;DHT22;6196;48.398;11.736;2022-12-04T17:53:48;3.10;99.90
12268;DHT22;6196;48.398;11.736;2022-12-04T17:56:18;3.20;99.90
12268;DHT22;6196;48.398;11.736;2022-12-04T17:58:48;3.20;99.90
12268;DHT22;6196;48.398;11.736;2022-12-04T18:01:21;3.20;99.90
12268;DHT22;6196;48.398;11.736;2022-12-04T18:03:58;3.10;99.90
12268;DHT22;6196;48.398;11.736;2022-12-04T18:06:32;3.20;99.90
12268;DHT22;6196;48.398;11.736;2022-12-04T18:09:06;3.20;99.90
12268;DHT22;6196;48.398;11.736;2022-12-04T18:11:36;3.20;99.90
12268;DHT22;6196;48.398;11.736;2022-12-04T18:14:06;3.20;99.90
12268;DHT22;6196;48.398;11.736;2022-12-04T18:16:41;3.30;99.90
12268;DHT22;6196;48.398;11.736;2022-12-04T18:19:10;3.30;99.90
12268;DHT22;6196;48.398;11.736;2022-12-04T18:21:38;3.20;99.90
12268;DHT22;6196;48.398;11.736;2022-12-04T18:24:06;3.20;99.90
12268;DHT22;6196;48.398;11.736;2022-12-04T18:26:42;3.20;99.90
12268;DHT22;6196;48.398;11.736;2022-12-04T18:29:15;3.20;99.90
12268;DHT22;6196;48.398;11.736;2022-12-04T18:31:44;3.20;99.90
12268;DHT22;6196;48.398;11.736;2022-12-04T18:34:12;3.10;99.90